Time;durP1;ratioP1;P1;durP2;ratioP2;P2;SDS_P1;SDS_P2;PMS_P1;PMS_P2;Temp;Humidity;BMP_temperature;BMP_pressure;BME280_temperature;BME280_humidity;BME280_pressure;Samples;Min_cycle;Max_cycle;Signal;HPM_P1;HPM_P2
2024/01/06 00:00:12;;;;;;;138.35;70.85;;;;;;;7.77;77.43;99606.59;5111038;28;20034;-38
2024/01/06 00:02:37;;;;;;;141.43;71.05;;;;;;;7.69;77.36;99606.75;5111016;28;20024;-39
2024/01/06 00:05:03;;;;;;;125.63;65.88;;;;;;;7.77;76.85;99603.97;5111051;28;20423;-26
2024/01/06 00:07:28;;;;;;;115.15;60.33;;;;;;;7.72;76.95;99595.75;5111098;28;20024;-26
2024/01/06 00:09:54;;;;;;;103.75;48.88;;;;;;;7.30;77.90;99594.69;5111042;28;20089;-25
2024/01/06 00:12:19;;;;;;;77.45;40.22;;;;;;;7.51;77.63;99588.59;5110814;28;20479;-38
2024/01/06 00:14:45;;;;;;;78.78;39.83;;;;;;;7.73;75.84;99576.22;5110691;28;20463;-37
2024/01/06 00:17:11;;;;;;;84.03;43.97;;;;;;;7.51;77.22;99578.00;5110530;28;20015;-39
2024/01/06 00:19:37;;;;;;;90.95;44.45;;;;;;;7.80;77.25;99589.50;5110633;28;20023;-38
2024/01/06 00:22:02;;;;;;;85.90;43.90;;;;;;;7.61;77.07;99562.63;5110684;28;20024;-39
2024/01/06 00:24:28;;;;;;;86.47;45.38;;;;;;;7.75;76.96;99586.59;5110557;28;20043;-39
2024/01/06 00:26:53;;;;;;;99.22;50.72;;;;;;;7.68;77.29;99598.97;5110379;28;20012;-38
2024/01/06 00:29:18;;;;;;;98.97;50.58;;;;;;;7.58;78.17;99610.69;5110070;28;20102;-37
2024/01/06 00:31:44;;;;;;;96.65;50.50;;;;;;;7.65;78.18;99610.75;5110092;28;20618;-39
2024/01/06 00:34:09;;;;;;;105.05;54.08;;;;;;;7.79;77.72;99609.06;5113700;28;20034;-38
2024/01/06 00:36:34;;;;;;;108.35;55.33;;;;;;;7.77;77.78;99605.78;5114555;28;20095;-35
2024/01/06 00:39:00;;;;;;;97.38;50.75;;;;;;;7.70;78.12;99603.06;5114846;28;20020;-36
2024/01/06 00:41:26;;;;;;;99.80;50.30;;;;;;;7.53;78.37;99606.97;5114560;28;20095;-39
2024/01/06 00:43:51;;;;;;;93.05;49.25;;;;;;;7.50;79.69;99607.31;5114123;28;20023;-36
2024/01/06 00:46:17;;;;;;;105.65;49.70;;;;;;;7.51;79.34;99601.03;5114450;28;20076;-39
2024/01/06 00:48:42;;;;;;;97.20;50.47;;;;;;;7.72;78.09;99579.03;5114233;28;20125;-38
2024/01/06 00:51:07;;;;;;;82.90;44.53;;;;;;;8.08;75.65;99578.97;5114286;28;20031;-36
2024/01/06 00:53:33;;;;;;;75.80;39.63;;;;;;;7.71;76.78;99575.59;5114160;28;20024;-38
2024/01/06 00:55:58;;;;;;;73.97;37.63;;;;;;;7.69;77.69;99567.00;5113994;28;20023;-38
2024/01/06 00:58:23;;;;;;;73.10;36.45;;;;;;;7.47;76.99;99517.69;5113988;28;20015;-38
2024/01/06 01:00:49;;;;;;;69.10;36.63;;;;;;;7.75;77.21;99568.06;5113699;28;20024;-36
2024/01/06 01:03:15;;;;;;;74.97;38.47;;;;;;;7.57;78.64;99573.78;5113806;28;20410;-39
2024/01/06 01:05:40;;;;;;;74.70;38.92;;;;;;;7.56;78.83;99577.47;5113939;28;20110;-38
2024/01/06 01:08:06;;;;;;;74.07;38.13;;;;;;;7.74;78.26;99577.84;5114029;28;20114;-38
2024/01/06 01:10:31;;;;;;;67.32;35.97;;;;;;;7.66;78.50;99580.63;5113595;28;20043;-38
2024/01/06 01:12:56;;;;;;;72.35;35.13;;;;;;;7.58;79.60;99588.69;5113765;28;20535;-26
2024/01/06 01:15:22;;;;;;;65.05;34.20;;;;;;;7.75;78.90;99578.66;5113659;28;20066;-25
2024/01/06 01:17:47;;;;;;;66.15;34.45;;;;;;;7.73;78.45;99567.41;5113500;28;20024;-25
2024/01/06 01:20:12;;;;;;;61.72;31.10;;;;;;;7.52;79.40;99553.19;5113432;28;20054;-26
2024/01/06 01:22:38;;;;;;;57.15;30.83;;;;;;;7.18;80.28;99552.00;5113546;28;20043;-25
2024/01/06 01:25:07;;;;;;;60.53;31.25;;;;;;;7.43;80.40;99559.59;5113536;27;20531;-26
2024/01/06 01:27:33;;;;;;;60.42;33.25;;;;;;;7.55;80.35;99551.97;5113693;27;20031;-25
2024/01/06 01:29:59;;;;;;;66.13;32.80;;;;;;;7.79;78.92;99559.56;5113416;28;20038;-26
2024/01/06 01:32:24;;;;;;;64.03;31.67;;;;;;;7.68;79.77;99568.00;5113499;28;20102;-26
2024/01/06 01:34:49;;;;;;;66.82;33.72;;;;;;;7.70;79.06;99565.97;5113630;28;20132;-25
2024/01/06 01:37:15;;;;;;;63.58;32.42;;;;;;;7.82;79.38;99566.28;5113186;28;20394;-25
2024/01/06 01:39:41;;;;;;;65.70;32.40;;;;;;;7.75;78.68;99558.28;5113520;28;20151;-26
2024/01/06 01:42:06;;;;;;;60.95;31.60;;;;;;;7.74;79.46;99556.66;5113072;28;20032;-26
2024/01/06 01:44:31;;;;;;;64.00;32.45;;;;;;;7.60;80.29;99555.69;5112136;28;20032;-25
2024/01/06 01:46:57;;;;;;;64.47;32.20;;;;;;;7.58;80.56;99567.50;5112957;28;20498;-26
2024/01/06 01:49:22;;;;;;;64.80;33.63;;;;;;;7.62;80.55;99577.53;5113292;28;20030;-26
2024/01/06 01:51:49;;;;;;;62.97;33.15;;;;;;;7.62;80.05;99576.72;5112935;28;20036;-26
2024/01/06 01:54:15;;;;;;;63.28;33.33;;;;;;;7.76;79.11;99567.88;5112810;28;20046;-25
2024/01/06 01:56:42;;;;;;;59.83;33.55;;;;;;;7.75;80.13;99555.66;5112975;28;20439;-26
2024/01/06 01:59:16;;;;;;;63.78;33.15;;;;;;;7.72;79.45;99560.50;5113080;28;20036;-26
2024/01/06 02:01:42;;;;;;;65.55;33.15;;;;;;;7.68;79.55;99553.94;5113256;28;20030;-26
2024/01/06 02:04:08;;;;;;;67.55;34.83;;;;;;;7.63;79.71;99555.34;5113469;28;20023;-25
2024/01/06 02:06:34;;;;;;;59.85;32.30;;;;;;;7.63;80.46;99554.50;5113690;28;20030;-26
2024/01/06 02:08:59;;;;;;;66.93;36.40;;;;;;;7.48;79.71;99565.13;5113607;28;20486;-25
2024/01/06 02:11:24;;;;;;;84.05;43.33;;;;;;;7.30;81.77;99548.88;5113336;28;20055;-26
2024/01/06 02:13:50;;;;;;;78.18;40.53;;;;;;;7.42;80.71;99540.25;5113475;28;20059;-25
2024/01/06 02:16:15;;;;;;;74.03;38.83;;;;;;;7.36;80.85;99532.22;5112653;28;20034;-25
2024/01/06 02:18:41;;;;;;;74.82;39.83;;;;;;;7.48;80.85;99532.53;5113188;28;20046;-25
2024/01/06 02:21:07;;;;;;;80.05;41.28;;;;;;;7.47;80.81;99521.16;5112942;28;20127;-26
2024/01/06 02:23:35;;;;;;;81.63;40.88;;;;;;;7.40;80.19;99521.06;5113231;28;20059;-25
2024/01/06 02:26:00;;;;;;;72.95;39.22;;;;;;;7.63;80.31;99534.16;5120257;27;20023;-25
2024/01/06 02:28:25;;;;;;;74.53;39.75;;;;;;;7.50;80.58;99536.66;5133619;27;20027;-25
2024/01/06 02:30:51;;;;;;;67.85;36.90;;;;;;;7.53;80.55;99533.63;5133119;27;20394;-25
2024/01/06 02:33:19;;;;;;;80.65;37.65;;;;;;;7.35;81.68;99534.06;5133169;27;20039;-25
2024/01/06 02:35:47;;;;;;;67.47;36.35;;;;;;;7.59;80.81;99545.28;5133380;27;20047;-25
2024/01/06 02:38:12;;;;;;;69.18;36.30;;;;;;;7.64;80.74;99543.72;5097513;27;20337;-25
2024/01/06 02:40:38;;;;;;;70.03;37.30;;;;;;;7.68;80.17;99533.56;5112431;28;20544;-26
2024/01/06 02:43:03;;;;;;;67.45;36.67;;;;;;;7.81;79.42;99528.38;5112182;28;20030;-25
2024/01/06 02:45:29;;;;;;;62.17;33.58;;;;;;;7.67;80.23;99525.81;5112650;28;20046;-24
2024/01/06 02:47:54;;;;;;;64.55;34.58;;;;;;;7.48;80.58;99516.66;5112308;28;20030;-25
2024/01/06 02:50:20;;;;;;;65.05;33.40;;;;;;;7.55;80.65;99515.72;5112323;28;20144;-23
2024/01/06 02:52:45;;;;;;;63.05;33.42;;;;;;;7.38;81.40;99524.91;5112334;28;20035;-25
2024/01/06 02:55:11;;;;;;;59.58;31.50;;;;;;;7.46;81.10;99524.78;5112327;28;20043;-25
2024/01/06 02:57:37;;;;;;;55.60;29.08;;;;;;;7.54;80.91;99532.63;5112340;28;20478;-25
2024/01/06 03:00:03;;;;;;;48.75;26.73;;;;;;;7.54;81.26;99534.44;5112040;28;20036;-25
2024/01/06 03:02:28;;;;;;;48.45;26.02;;;;;;;7.44;80.58;99530.28;5112183;28;20023;-25
2024/01/06 03:04:54;;;;;;;49.65;26.42;;;;;;;7.43;81.11;99533.13;5112091;28;20026;-27
2024/01/06 03:07:20;;;;;;;46.92;24.20;;;;;;;7.44;81.44;99535.59;5112148;28;20090;-25
2024/01/06 03:09:46;;;;;;;48.38;24.17;;;;;;;7.55;80.33;99536.91;5111878;28;20523;-26
2024/01/06 03:12:11;;;;;;;39.45;22.08;;;;;;;7.55;79.99;99534.25;5112142;28;20020;-26
2024/01/06 03:14:37;;;;;;;39.97;20.52;;;;;;;7.46;80.33;99527.44;5112093;28;20718;-26
2024/01/06 03:17:03;;;;;;;41.60;23.55;;;;;;;7.51;80.62;99519.75;5111840;28;20047;-25
2024/01/06 03:19:29;;;;;;;57.67;30.83;;;;;;;7.52;80.21;99512.63;5112144;28;20051;-26
2024/01/06 03:21:54;;;;;;;48.60;25.13;;;;;;;7.53;79.48;99514.28;5111626;28;20031;-26
2024/01/06 03:24:24;;;;;;;45.30;23.42;;;;;;;7.49;79.99;99521.78;5111464;28;20016;-26
2024/01/06 03:26:50;;;;;;;45.08;24.05;;;;;;;7.39;80.65;99516.78;5111488;28;20032;-24
2024/01/06 03:29:15;;;;;;;34.65;19.50;;;;;;;7.35;80.40;99499.66;5111614;28;20019;-26
2024/01/06 03:31:45;;;;;;;52.95;27.90;;;;;;;7.47;80.15;99502.63;5111572;28;20020;-25
2024/01/06 03:34:13;;;;;;;42.70;22.65;;;;;;;7.22;81.10;99510.91;5111615;28;20132;-26
2024/01/06 03:36:39;;;;;;;41.35;21.80;;;;;;;7.22;81.49;99502.97;5110204;28;20164;-26
2024/01/06 03:39:05;;;;;;;49.55;24.17;;;;;;;7.22;81.25;99495.03;5111343;28;20504;-25
2024/01/06 03:41:30;;;;;;;41.58;22.13;;;;;;;7.35;80.83;99512.03;5111752;28;20037;-26
2024/01/06 03:43:56;;;;;;;45.30;22.52;;;;;;;7.31;80.57;99516.06;5111611;28;20485;-36
2024/01/06 03:46:22;;;;;;;38.08;19.70;;;;;;;7.51;79.63;99513.66;5111646;28;20104;-38
2024/01/06 03:48:48;;;;;;;38.97;19.15;;;;;;;7.51;79.08;99513.66;5111742;28;20045;-38
2024/01/06 03:51:13;;;;;;;37.25;19.50;;;;;;;7.33;80.01;99501.66;5111019;28;20471;-38
2024/01/06 03:53:40;;;;;;;32.15;18.73;;;;;;;7.34;79.50;99513.88;5111832;28;20043;-27
2024/01/06 03:56:05;;;;;;;32.42;18.38;;;;;;;7.25;80.08;99507.06;5111166;28;20414;-25
2024/01/06 03:58:31;;;;;;;35.65;18.80;;;;;;;7.39;79.22;99497.44;5111588;28;20016;-25
2024/01/06 04:00:56;;;;;;;37.63;19.33;;;;;;;7.37;79.43;99510.06;5111158;28;20016;-26
2024/01/06 04:03:22;;;;;;;34.67;19.67;;;;;;;7.42;80.04;99505.84;5110534;28;20015;-25
2024/01/06 04:05:47;;;;;;;32.35;17.80;;;;;;;7.16;79.97;99510.81;5111559;28;20030;-25
2024/01/06 04:08:12;;;;;;;34.13;17.92;;;;;;;7.15;81.02;99510.00;5110631;28;20024;-25
2024/01/06 04:10:38;;;;;;;34.03;18.02;;;;;;;7.28;80.44;99506.69;5111215;28;20128;-26
2024/01/06 04:13:04;;;;;;;30.75;17.60;;;;;;;7.11;80.13;99506.09;5111325;28;20020;-25
2024/01/06 04:15:29;;;;;;;33.30;17.90;;;;;;;6.97;81.11;99520.19;5111391;28;20034;-25
2024/01/06 04:17:55;;;;;;;34.10;17.98;;;;;;;7.23;80.44;99514.38;5111651;28;20024;-26
2024/01/06 04:20:20;;;;;;;33.05;18.30;;;;;;;7.36;80.07;99521.66;5110998;28;20027;-25
2024/01/06 04:22:46;;;;;;;38.00;19.85;;;;;;;7.38;80.53;99509.84;5111713;28;20027;-25
2024/01/06 04:25:11;;;;;;;34.83;19.58;;;;;;;7.37;80.29;99505.56;5111134;28;20467;-25
2024/01/06 04:27:36;;;;;;;38.53;19.90;;;;;;;7.36;80.06;99503.91;5110929;28;20615;-25
2024/01/06 04:30:02;;;;;;;40.38;20.70;;;;;;;6.95;82.16;99504.50;5111352;28;20344;-26
2024/01/06 04:32:27;;;;;;;34.63;19.05;;;;;;;7.12;81.39;99493.69;5111113;28;20019;-26
2024/01/06 04:34:52;;;;;;;35.38;18.55;;;;;;;7.03;82.20;99506.22;5111361;28;20371;-25
2024/01/06 04:37:18;;;;;;;37.30;18.80;;;;;;;7.20;81.41;99496.25;5110916;28;20022;-26
2024/01/06 04:39:43;;;;;;;37.53;18.55;;;;;;;7.10;81.41;99495.69;5111379;28;20149;-26
2024/01/06 04:42:09;;;;;;;31.33;17.17;;;;;;;7.05;81.25;99502.38;5111336;28;20020;-25
2024/01/06 04:44:34;;;;;;;33.38;16.98;;;;;;;7.00;81.30;99480.94;5111104;28;20351;-26
2024/01/06 04:47:00;;;;;;;29.05;16.45;;;;;;;7.19;80.82;99510.47;5106698;28;20109;-26
2024/01/06 04:49:25;;;;;;;27.15;15.05;;;;;;;7.19;80.26;99510.47;5090564;28;20016;-26
2024/01/06 04:51:50;;;;;;;26.13;13.52;;;;;;;7.00;79.22;99523.28;5090921;28;20027;-26
2024/01/06 04:54:16;;;;;;;25.48;13.93;;;;;;;7.13;78.88;99511.22;5090661;28;20127;-26
2024/01/06 04:56:41;;;;;;;25.27;13.20;;;;;;;7.22;78.71;99513.56;5097807;28;20063;-27
2024/01/06 04:59:07;;;;;;;25.30;12.18;;;;;;;7.21;78.84;99513.75;5111193;28;20023;-26
2024/01/06 05:01:32;;;;;;;20.00;11.75;;;;;;;7.28;77.86;99514.63;5111209;28;20016;-27
2024/01/06 05:03:58;;;;;;;23.50;12.73;;;;;;;7.46;77.10;99518.69;5110908;28;20111;-27
2024/01/06 05:06:24;;;;;;;22.42;12.30;;;;;;;7.59;77.08;99518.81;5111277;28;20019;-25
2024/01/06 05:08:50;;;;;;;21.85;12.32;;;;;;;7.39;76.96;99489.50;5110879;28;20319;-26
2024/01/06 05:11:15;;;;;;;23.05;12.07;;;;;;;7.48;77.01;99503.44;5111015;28;20381;-27
2024/01/06 05:13:41;;;;;;;21.98;12.32;;;;;;;7.40;77.49;99512.31;5111184;28;20455;-27
2024/01/06 05:16:08;;;;;;;25.05;13.32;;;;;;;7.43;76.83;99522.53;5111061;28;20111;-41
2024/01/06 05:18:34;;;;;;;26.52;13.63;;;;;;;7.54;76.82;99513.25;5110900;28;20024;-40
2024/01/06 05:20:59;;;;;;;28.60;14.63;;;;;;;7.58;76.04;99496.81;5113215;28;20073;-40
2024/01/06 05:23:25;;;;;;;28.30;14.77;;;;;;;7.41;77.08;99513.97;5114565;28;20023;-40
2024/01/06 05:25:50;;;;;;;25.08;13.65;;;;;;;7.22;77.99;99532.09;5114544;28;20027;-39
2024/01/06 05:28:16;;;;;;;28.55;14.27;;;;;;;7.10;78.84;99512.41;5114405;28;20031;-39
2024/01/06 05:30:41;;;;;;;26.90;14.73;;;;;;;6.99;79.96;99526.94;5114301;28;20016;-39
2024/01/06 05:33:09;;;;;;;22.38;13.20;;;;;;;7.09;79.97;99531.94;5114601;28;20123;-39
2024/01/06 05:35:35;;;;;;;27.85;13.40;;;;;;;7.09;79.69;99531.13;5114332;28;20046;-39
2024/01/06 05:38:01;;;;;;;24.50;13.35;;;;;;;7.21;79.36;99525.13;5114354;28;20467;-40
2024/01/06 05:40:26;;;;;;;24.95;13.43;;;;;;;6.98;79.55;99535.88;5114183;28;20037;-39
2024/01/06 05:42:55;;;;;;;23.23;13.35;;;;;;;6.90;79.91;99543.91;5114165;28;20019;-38
2024/01/06 05:45:20;;;;;;;21.83;12.05;;;;;;;7.13;78.69;99542.97;5114297;28;20020;-39
2024/01/06 05:47:46;;;;;;;28.60;13.65;;;;;;;7.00;79.17;99536.50;5113925;28;20103;-39
2024/01/06 05:50:11;;;;;;;24.70;13.32;;;;;;;7.13;78.98;99533.19;5113991;28;20084;-39
2024/01/06 05:52:37;;;;;;;24.05;13.13;;;;;;;7.11;78.84;99537.03;5114227;28;20034;-39
2024/01/06 05:55:02;;;;;;;23.50;12.65;;;;;;;6.79;79.94;99545.19;5113619;28;20027;-40
2024/01/06 05:57:28;;;;;;;28.73;13.80;;;;;;;7.29;86.34;99526.88;5114090;28;20030;-40
2024/01/06 05:59:53;;;;;;;28.95;15.18;;;;;;;7.33;78.79;99532.59;5114223;28;20047;-39
2024/01/06 06:02:18;;;;;;;28.85;15.05;;;;;;;7.11;79.06;99535.22;5112690;28;20387;-40
2024/01/06 06:04:44;;;;;;;30.02;15.30;;;;;;;6.82;79.82;99531.63;5113285;28;20467;-39
2024/01/06 06:07:09;;;;;;;31.80;14.90;;;;;;;7.08;80.19;99532.94;5113483;28;20106;-40
2024/01/06 06:09:35;;;;;;;24.63;13.98;;;;;;;6.83;80.47;99527.97;5112891;28;20127;-40
2024/01/06 06:12:00;;;;;;;29.30;14.90;;;;;;;7.02;80.64;99525.75;5113641;28;20020;-40
2024/01/06 06:14:25;;;;;;;24.35;13.48;;;;;;;7.08;79.10;99514.41;5113598;28;20019;-40
2024/01/06 06:16:51;;;;;;;22.23;13.82;;;;;;;6.98;79.94;99516.53;5113863;28;20034;-39
2024/01/06 06:19:18;;;;;;;22.67;12.82;;;;;;;7.01;79.73;99521.47;5113948;28;20024;-42
2024/01/06 06:21:43;;;;;;;22.35;13.13;;;;;;;7.06;79.64;99521.72;5113527;28;20034;-38
2024/01/06 06:24:09;;;;;;;24.20;13.13;;;;;;;6.75;79.89;99519.31;5113405;28;20023;-40
2024/01/06 06:26:34;;;;;;;24.55;12.75;;;;;;;6.64;81.22;99510.00;5111943;28;20024;-39
2024/01/06 06:29:00;;;;;;;24.75;13.25;;;;;;;6.62;82.30;99499.59;5112789;28;20378;-39
2024/01/06 06:31:25;;;;;;;21.17;13.15;;;;;;;7.07;80.46;99491.63;5092574;28;20020;-40
2024/01/06 06:33:51;;;;;;;23.35;13.20;;;;;;;6.82;80.59;99505.16;5093219;28;20024;-39
2024/01/06 06:36:16;;;;;;;21.40;12.38;;;;;;;6.50;81.25;99487.88;5094892;28;20020;-38
2024/01/06 06:38:42;;;;;;;25.60;13.00;;;;;;;6.51;82.00;99489.53;5112509;28;20080;-39
2024/01/06 06:41:07;;;;;;;21.00;12.52;;;;;;;6.63;81.76;99479.28;5112591;28;20034;-39
2024/01/06 06:43:32;;;;;;;22.88;12.80;;;;;;;6.78;81.76;99487.22;5112803;28;20024;-40
2024/01/06 06:45:58;;;;;;;22.05;12.48;;;;;;;6.72;82.16;99488.78;5112743;28;20024;-39
2024/01/06 06:48:23;;;;;;;22.85;12.80;;;;;;;6.92;81.96;99483.72;5112861;28;20019;-40
2024/01/06 06:50:48;;;;;;;23.60;13.32;;;;;;;6.99;80.83;99481.97;5112492;28;20038;-39
2024/01/06 06:53:14;;;;;;;22.30;12.38;;;;;;;7.26;80.23;99494.66;5112673;28;20142;-38
2024/01/06 06:55:40;;;;;;;19.73;12.50;;;;;;;7.21;80.39;99497.84;5112404;28;20508;-37
2024/01/06 06:58:06;;;;;;;20.15;12.40;;;;;;;7.34;79.83;99490.06;5111752;28;20023;-39
2024/01/06 07:00:32;;;;;;;23.92;12.48;;;;;;;7.08;79.53;99487.13;5112781;28;20031;-39
2024/01/06 07:02:58;;;;;;;21.33;12.10;;;;;;;7.10;79.78;99490.41;5111957;28;20031;-39
2024/01/06 07:05:23;;;;;;;22.80;12.43;;;;;;;6.84;80.85;99499.69;5111620;28;20039;-38
2024/01/06 07:07:49;;;;;;;23.63;12.60;;;;;;;7.05;79.87;99494.44;5111724;28;20518;-40
2024/01/06 07:10:14;;;;;;;24.15;12.93;;;;;;;7.16;79.06;99484.34;5111784;28;20103;-42
2024/01/06 07:12:40;;;;;;;26.85;12.85;;;;;;;7.23;79.22;99475.50;5112288;28;20102;-40
2024/01/06 07:15:05;;;;;;;24.02;13.32;;;;;;;7.32;77.90;99472.72;5111967;28;20138;-40
2024/01/06 07:17:31;;;;;;;24.77;13.40;;;;;;;7.05;79.30;99464.53;5111375;28;20024;-39
2024/01/06 07:19:56;;;;;;;27.67;14.07;;;;;;;6.90;80.12;99464.56;5111443;28;20023;-39
2024/01/06 07:22:22;;;;;;;25.27;14.00;;;;;;;7.00;80.49;99475.66;5110608;28;20062;-38
2024/01/06 07:24:47;;;;;;;24.33;13.00;;;;;;;7.05;80.87;99478.56;5110659;28;20019;-40
2024/01/06 07:27:13;;;;;;;25.95;14.15;;;;;;;7.24;80.27;99487.72;5110987;28;20051;-41
2024/01/06 07:29:38;;;;;;;30.33;13.57;;;;;;;7.29;80.00;99497.75;5111050;28;20091;-41
2024/01/06 07:32:06;;;;;;;22.33;14.07;;;;;;;7.32;79.80;99496.56;5111383;28;20471;-41
2024/01/06 07:34:31;;;;;;;29.30;14.63;;;;;;;7.49;78.70;99492.66;5112222;28;20019;-39
2024/01/06 07:36:57;;;;;;;27.17;14.10;;;;;;;7.44;78.52;99497.69;5112250;28;20019;-39
2024/01/06 07:39:24;;;;;;;23.67;13.90;;;;;;;7.39;79.30;99477.09;5112069;28;20471;-39
2024/01/06 07:41:49;;;;;;;31.73;14.93;;;;;;;7.26;80.52;99476.13;5111502;28;20026;-40
2024/01/06 07:44:16;;;;;;;57.47;26.77;;;;;;;7.42;79.71;99476.72;5111767;28;20024;-39
2024/01/06 07:46:41;;;;;;;29.00;16.08;;;;;;;7.35;79.16;99482.94;5111956;28;20062;-42
2024/01/06 07:49:07;;;;;;;36.55;17.10;;;;;;;7.35;79.59;99477.63;5111697;28;20020;-39
2024/01/06 07:51:34;;;;;;;28.83;17.27;;;;;;;7.58;79.30;99488.88;5111953;28;20030;-36
2024/01/06 07:54:00;;;;;;;30.48;17.48;;;;;;;7.63;79.61;99483.00;5112116;28;20133;-40
2024/01/06 07:56:25;;;;;;;33.10;16.45;;;;;;;7.72;78.35;99483.69;5111804;28;20102;-41
2024/01/06 07:58:51;;;;;;;28.33;16.35;;;;;;;7.68;78.08;99483.25;5112108;28;20019;-39
2024/01/06 08:01:17;;;;;;;33.20;16.60;;;;;;;8.13;76.80;99480.31;5111765;28;20042;-41
2024/01/06 08:03:43;;;;;;;29.60;15.98;;;;;;;8.15;76.50;99478.31;5111392;28;20459;-42
2024/01/06 08:06:09;;;;;;;29.30;15.75;;;;;;;8.01;76.73;99483.53;5111695;28;20033;-39
2024/01/06 08:08:35;;;;;;;26.08;15.18;;;;;;;7.99;77.16;99474.91;5111676;28;20023;-38
2024/01/06 08:11:01;;;;;;;29.13;15.73;;;;;;;8.26;75.89;99472.44;5111717;28;20063;-41
2024/01/06 08:13:27;;;;;;;32.50;16.73;;;;;;;8.10;76.61;99472.75;5111808;28;20071;-39
2024/01/06 08:15:53;;;;;;;34.60;17.35;;;;;;;8.19;75.60;99472.41;5111510;28;20055;-39
2024/01/06 08:18:18;;;;;;;39.15;17.35;;;;;;;7.94;77.47;99481.81;5111130;28;20085;-40
2024/01/06 08:20:43;;;;;;;30.80;17.80;;;;;;;8.41;75.86;99478.50;5110812;28;20430;-42
2024/01/06 08:23:10;;;;;;;34.45;17.85;;;;;;;8.58;75.52;99484.28;5110325;28;20034;-40
2024/01/06 08:25:36;;;;;;;30.10;16.63;;;;;;;9.20;72.10;99493.09;5110778;28;20023;-40
2024/01/06 08:28:01;;;;;;;32.17;17.38;;;;;;;8.87;73.23;99489.50;5110566;28;20023;-41
2024/01/06 08:30:26;;;;;;;34.25;17.92;;;;;;;9.12;72.70;99489.78;5110926;28;20039;-39
2024/01/06 08:32:52;;;;;;;36.72;18.45;;;;;;;9.03;73.19;99485.69;5107461;28;20038;-38
2024/01/06 08:35:19;;;;;;;35.05;19.20;;;;;;;9.08;72.57;99496.50;5110546;28;20051;-40
2024/01/06 08:37:44;;;;;;;36.15;17.20;;;;;;;9.38;79.22;99487.19;5111048;28;20024;-40
2024/01/06 08:40:10;;;;;;;36.55;17.60;;;;;;;9.72;77.60;99487.22;5111021;28;20072;-41
2024/01/06 08:42:36;;;;;;;37.35;18.30;;;;;;;10.48;73.57;99478.78;5111143;28;20063;-38
2024/01/06 08:45:02;;;;;;;28.52;17.17;;;;;;;11.05;76.15;99483.47;5111394;28;20459;-39
2024/01/06 08:47:27;;;;;;;44.72;20.05;;;;;;;11.01;67.94;99467.13;5110813;28;20110;-42
2024/01/06 08:49:52;;;;;;;40.60;20.50;;;;;;;10.41;67.39;99461.22;5111212;28;20110;-40
2024/01/06 08:52:18;;;;;;;36.35;19.17;;;;;;;10.57;72.56;99463.41;5111425;28;20027;-40
2024/01/06 08:54:44;;;;;;;38.95;19.98;;;;;;;11.27;68.80;99467.97;5114032;28;20031;-40
2024/01/06 08:57:09;;;;;;;38.88;21.23;;;;;;;11.65;62.88;99467.94;5115357;28;20023;-39
2024/01/06 08:59:35;;;;;;;39.50;20.75;;;;;;;10.73;65.36;99476.22;5114583;28;20539;-40
2024/01/06 09:02:01;;;;;;;41.65;22.52;;;;;;;10.76;66.11;99467.03;5114892;28;20494;-39
2024/01/06 09:04:26;;;;;;;46.75;22.70;;;;;;;10.62;65.92;99460.91;5115202;28;20031;-39
2024/01/06 09:06:52;;;;;;;45.47;22.10;;;;;;;10.24;66.07;99458.16;5115207;28;20463;-41
2024/01/06 09:09:17;;;;;;;46.28;23.40;;;;;;;9.97;68.32;99452.88;5114516;27;20048;-39
2024/01/06 09:11:44;;;;;;;46.63;24.30;;;;;;;9.69;68.83;99442.47;5114775;28;20035;-37
2024/01/06 09:14:10;;;;;;;46.00;24.85;;;;;;;9.95;68.23;99446.94;5114762;28;20028;-39
2024/01/06 09:16:36;;;;;;;41.33;21.58;;;;;;;9.85;68.49;99444.72;5115111;28;20022;-41
2024/01/06 09:19:02;;;;;;;45.90;23.08;;;;;;;9.66;69.75;99435.72;5114728;28;20023;-40
2024/01/06 09:21:27;;;;;;;38.42;21.13;;;;;;;9.71;69.47;99441.25;5114772;28;20034;-43
2024/01/06 09:23:53;;;;;;;43.35;22.70;;;;;;;9.67;69.90;99429.41;5113798;28;20827;-40
2024/01/06 09:26:18;;;;;;;40.22;21.70;;;;;;;9.72;69.76;99429.59;5116609;27;20072;-41
2024/01/06 09:28:44;;;;;;;44.88;20.55;;;;;;;9.74;70.29;99430.19;5114529;28;20031;-37
2024/01/06 09:31:09;;;;;;;44.17;21.80;;;;;;;9.92;70.04;99424.25;5114520;28;20055;-39
2024/01/06 09:33:34;;;;;;;36.33;20.40;;;;;;;9.88;69.75;99416.91;5114333;28;20030;-41
2024/01/06 09:36:01;;;;;;;42.90;20.13;;;;;;;9.70;70.36;99420.19;5114291;28;20456;-41
2024/01/06 09:38:26;;;;;;;44.05;20.67;;;;;;;9.80;70.85;99412.63;5114281;28;20023;-38
2024/01/06 09:40:53;;;;;;;38.03;21.77;;;;;;;9.91;69.67;99411.97;5114154;28;20035;-40
2024/01/06 09:43:19;;;;;;;40.65;20.80;;;;;;;10.29;69.02;99413.13;5112850;28;20407;-41
2024/01/06 09:45:55;;;;;;;38.53;20.75;;;;;;;10.23;68.28;99412.13;5114197;28;20032;-43
2024/01/06 09:48:25;;;;;;;48.58;21.42;;;;;;;10.53;67.49;99398.34;5114523;28;20027;-40
2024/01/06 09:50:55;;;;;;;34.38;20.25;;;;;;;10.30;67.17;99388.16;5102857;27;20506;-40
2024/01/06 09:53:27;;;;;;;34.40;19.88;;;;;;;10.36;67.26;99382.84;5110611;28;20024;-40
2024/01/06 09:55:54;;;;;;;32.97;17.73;;;;;;;10.22;67.72;99378.56;5114073;28;20031;-40
2024/01/06 09:58:19;;;;;;;34.40;16.75;;;;;;;10.35;67.52;99377.75;5114108;28;20415;-40
2024/01/06 10:00:44;;;;;;;35.58;17.30;;;;;;;10.51;65.88;99365.81;5113366;28;20467;-38
2024/01/06 10:03:10;;;;;;;31.45;17.45;;;;;;;10.74;65.69;99362.63;5112418;28;20020;-42
2024/01/06 10:05:36;;;;;;;37.00;17.17;;;;;;;11.48;62.70;99363.72;5112627;28;20023;-40
2024/01/06 10:08:04;;;;;;;32.22;17.33;;;;;;;11.17;63.68;99353.13;5113801;28;20047;-42
2024/01/06 10:10:29;;;;;;;31.67;16.80;;;;;;;11.08;64.11;99352.56;5113400;28;20135;-39
2024/01/06 10:12:55;;;;;;;34.75;17.63;;;;;;;11.04;63.87;99348.69;5113062;28;20153;-40
2024/01/06 10:15:20;;;;;;;39.05;19.52;;;;;;;11.34;64.16;99349.69;5113037;28;20031;-39
2024/01/06 10:17:46;;;;;;;37.85;18.92;;;;;;;11.65;61.78;99341.81;5113635;28;20031;-40
2024/01/06 10:20:13;;;;;;;35.20;19.23;;;;;;;11.25;63.75;99329.72;5113313;28;20097;-40
2024/01/06 10:22:42;;;;;;;40.05;19.25;;;;;;;10.94;64.94;99331.34;5113298;28;20038;-40
2024/01/06 10:25:09;;;;;;;45.20;21.15;;;;;;;10.88;65.12;99326.91;5113751;28;20069;-40
2024/01/06 10:27:36;;;;;;;36.95;21.17;;;;;;;11.52;63.53;99324.94;5113376;28;20046;-40
2024/01/06 10:30:01;;;;;;;38.03;18.42;;;;;;;11.24;63.53;99314.75;5113307;28;20042;-39
2024/01/06 10:32:30;;;;;;;39.92;19.45;;;;;;;11.11;64.00;99320.19;5101612;28;20477;-42
2024/01/06 10:34:56;;;;;;;36.80;18.13;;;;;;;10.93;63.81;99316.41;5093209;28;20092;-40
2024/01/06 10:37:21;;;;;;;37.55;18.75;;;;;;;11.09;64.44;99314.25;5093158;28;20028;-39
2024/01/06 10:39:46;;;;;;;37.70;18.63;;;;;;;11.90;61.51;99312.50;5097470;28;20023;-38
2024/01/06 10:42:14;;;;;;;38.40;16.75;;;;;;;11.35;62.92;99303.38;5112948;28;20020;-41
2024/01/06 10:44:42;;;;;;;34.33;16.48;;;;;;;11.25;64.07;99310.22;5112724;28;20517;-40
2024/01/06 10:47:08;;;;;;;33.78;16.17;;;;;;;11.28;64.29;99307.94;5113257;28;20498;-40
2024/01/06 10:49:35;;;;;;;31.17;15.88;;;;;;;11.15;65.54;99308.06;5113144;28;20019;-41
2024/01/06 10:52:01;;;;;;;27.52;13.77;;;;;;;11.95;62.66;99291.28;5103932;28;20016;-40
2024/01/06 10:54:28;;;;;;;31.90;16.58;;;;;;;11.41;63.55;99287.56;5092405;28;20026;-40
2024/01/06 10:56:53;;;;;;;31.55;16.55;;;;;;;11.22;64.26;99271.53;5094147;28;20509;-40
2024/01/06 10:59:22;;;;;;;30.50;15.45;;;;;;;10.83;66.40;99270.00;5112761;28;20031;-41
2024/01/06 11:01:49;;;;;;;29.38;16.13;;;;;;;10.95;66.60;99278.94;5113135;28;20062;-39
2024/01/06 11:04:15;;;;;;;27.95;14.68;;;;;;;11.69;64.47;99261.22;5111246;28;20055;-39
2024/01/06 11:06:41;;;;;;;25.35;14.10;;;;;;;11.25;65.75;99255.13;5112712;28;20031;-40
2024/01/06 11:09:18;;;;;;;23.38;12.63;;;;;;;10.79;67.34;99251.00;5112167;28;20055;-43
2024/01/06 11:11:44;;;;;;;29.30;14.18;;;;;;;11.01;66.96;99262.09;5112595;28;20024;-40
2024/01/06 11:14:24;;;;;;;29.50;14.48;;;;;;;11.24;67.03;99258.00;5112712;28;20024;-41
2024/01/06 11:16:51;;;;;;;25.58;13.10;;;;;;;11.53;65.86;99248.47;5111710;28;20096;-37